Masuei Maru — JD4083 — position and weather

sailwx.info

Track history (hours):
 
Tides and Currents Weather Stations Pressure Air Temp Water Temp Dewpoint Dewpoint Depression Visibility Wind Speed Wind Dir Waves Ship Positions

Masuei Maru

Last reported at 2017-Oct-12 09:55 UTC. Time now 2017-Oct-17 01:08 UTC.
Position N 34°37' E 134°58'.

Length 75 m; draft 4.5 m.

Type: Cargo ship. MMSI: 431008431.

Date/timePositionNaut miles runAvg speedWind from/ knotsBaromVisibWave heightAir tempDewpointWater temp
2017-Oct-12 09:55N 34°37' E 134°58'410.8
2017-Oct-12 09:30N 34°36' E 135°04'612.7
2017-Oct-12 09:00N 34°36' E 135°11'713.9
2017-Oct-12 08:31N 34°36' E 135°20'5 9.3
2017-Oct-12 07:59N 34°35' E 135°25'0 0.2
2017-Oct-12 06:41N 34°35' E 135°26'0 0.0
2017-Oct-12 05:35N 34°35' E 135°26'0 0.0
2017-Oct-12 05:29N 34°35' E 135°26'0 0.0
2017-Oct-12 04:53N 34°35' E 135°26'0 0.0
2017-Oct-12 04:17N 34°35' E 135°26'0 0.0
2017-Oct-12 03:59N 34°35' E 135°26'0 0.0
2017-Oct-12 03:17N 34°35' E 135°26'0 0.0
2017-Oct-12 02:59N 34°35' E 135°26'0 0.0
2017-Oct-12 02:29N 34°35' E 135°26'0 0.0
2017-Oct-12 01:53N 34°35' E 135°26'0 0.0
2017-Oct-12 01:29N 34°35' E 135°26'0 0.0
2017-Oct-12 00:59N 34°35' E 135°26'0 0.0
2017-Oct-12 00:29N 34°35' E 135°26'0 0.0
2017-Oct-11 23:59N 34°35' E 135°26'0 0.0
2017-Oct-11 23:23N 34°35' E 135°26'0 0.0
2017-Oct-11 22:59N 34°35' E 135°26'0 0.0
2017-Oct-11 22:29N 34°35' E 135°26'0 0.0
2017-Oct-11 21:59N 34°35' E 135°26'0 0.5
2017-Oct-11 21:20N 34°35' E 135°25'0 0.0
2017-Oct-11 20:14N 34°35' E 135°25'0 0.0
2017-Oct-11 19:56N 34°35' E 135°25'0 0.0
2017-Oct-11 17:56N 34°35' E 135°25'0 0.0
2017-Oct-11 17:26N 34°35' E 135°25'0 0.0
2017-Oct-11 16:56N 34°35' E 135°25'26 0.8
2017-Oct-10 07:01N 34°37' E 134°54'0 9.9
2017-Oct-10 07:00N 34°37' E 134°54'610.7
2017-Oct-10 06:27N 34°37' E 135°02'510.6
2017-Oct-10 06:00N 34°33' E 135°05'713.0
2017-Oct-10 05:29N 34°27' E 135°03'1313.0
2017-Oct-10 04:31N 34°15' E 134°59'013.9
2017-Oct-10 04:30N 34°14' E 134°59'713.0
2017-Oct-10 04:00N 34°08' E 135°01'  
2017-Oct-04 23:12N 34°51' E 139°48'713.8
2017-Oct-04 22:42N 34°57' E 139°44'314.5
2017-Oct-04 22:30N 34°60' E 139°43'713.3
2017-Oct-04 22:00N 35°06' E 139°45'713.4
2017-Oct-04 21:30N 35°13' E 139°46'611.5
2017-Oct-04 21:00N 35°18' E 139°43'2 3.5
2017-Oct-04 20:31N 35°17' E 139°41'0 0.0
2017-Oct-04 20:00N 35°17' E 139°41'0 0.0
2017-Oct-04 19:30N 35°17' E 139°41'0 0.0
2017-Oct-04 19:00N 35°17' E 139°41'0 0.0
2017-Oct-04 18:30N 35°17' E 139°41'0 0.0
2017-Oct-04 18:00N 35°17' E 139°41'0 0.0
2017-Oct-04 17:24N 35°17' E 139°41'0 0.0
2017-Oct-04 16:57N 35°17' E 139°41'0 0.0
2017-Oct-04 16:28N 35°17' E 139°41'0 0.0
2017-Oct-04 15:55N 35°17' E 139°41'0 0.0
2017-Oct-04 15:29N 35°17' E 139°41'0 0.0
2017-Oct-04 14:59N 35°17' E 139°41'0 0.0
2017-Oct-04 14:29N 35°17' E 139°41'0 0.0
2017-Oct-04 13:56N 35°17' E 139°41'0 0.0
2017-Oct-04 13:23N 35°17' E 139°41'0 0.0
2017-Oct-04 12:59N 35°17' E 139°41'0 0.0
2017-Oct-04 12:29N 35°17' E 139°41'0 0.0
2017-Oct-04 11:53N 35°17' E 139°41'0 0.0
2017-Oct-04 11:29N 35°17' E 139°41'0 0.0
2017-Oct-04 10:59N 35°17' E 139°41'0 0.0
2017-Oct-04 10:29N 35°17' E 139°41'0 0.0
2017-Oct-04 09:59N 35°17' E 139°41'0 0.0
2017-Oct-04 09:23N 35°17' E 139°41'0 0.0
2017-Oct-04 08:59N 35°17' E 139°41'0 0.0
2017-Oct-04 08:29N 35°17' E 139°41'0 0.0
2017-Oct-04 07:59N 35°17' E 139°41'0 0.0
2017-Oct-04 07:29N 35°17' E 139°41'0 0.0
2017-Oct-04 06:59N 35°17' E 139°41'0 0.0
2017-Oct-04 06:29N 35°17' E 139°41'0 0.0
2017-Oct-04 05:59N 35°17' E 139°41'0 0.0
2017-Oct-04 05:29N 35°17' E 139°41'0 0.0
2017-Oct-04 04:59N 35°17' E 139°41'0 0.0
2017-Oct-04 04:29N 35°17' E 139°41'0 0.0
2017-Oct-04 03:59N 35°17' E 139°41'0 0.0
2017-Oct-04 03:29N 35°17' E 139°41'0 0.0
2017-Oct-04 02:47N 35°17' E 139°41'0 0.0
2017-Oct-04 02:29N 35°17' E 139°41'0 0.0
2017-Oct-04 01:59N 35°17' E 139°41'0 0.0
2017-Oct-04 01:23N 35°17' E 139°41'0 0.0
2017-Oct-04 00:59N 35°17' E 139°41'0 0.0
2017-Oct-04 00:29N 35°17' E 139°41'0 0.0
2017-Oct-03 23:59N 35°17' E 139°41'0 0.0
2017-Oct-03 23:29N 35°17' E 139°41'0 0.0
2017-Oct-03 22:59N 35°17' E 139°41'0 0.0
2017-Oct-03 22:29N 35°17' E 139°41'0 0.0
2017-Oct-03 22:00N 35°17' E 139°41'0 0.0
2017-Oct-03 21:30N 35°17' E 139°41'0 0.2
2017-Oct-03 21:00N 35°17' E 139°41'4 8.3
2017-Oct-03 20:30N 35°17' E 139°46'510.4
2017-Oct-03 20:00N 35°11' E 139°46'612.9
2017-Oct-03 19:30N 35°05' E 139°43'613.0
2017-Oct-03 19:00N 35°01' E 139°38'713.0
2017-Oct-03 18:29N 34°56' E 139°31'  
Track history (hours):
 
Tides and Currents Weather Stations Pressure Air Temp Water Temp Dewpoint Dewpoint Depression Visibility Wind Speed Wind Dir Waves Ship Positions

Masuei Maru

Last reported at 2017-Oct-12 09:55 UTC. Time now 2017-Oct-17 01:08 UTC.
Position N 34°37' E 134°58'.

Length 75 m; draft 4.5 m.

Type: Cargo ship. MMSI: 431008431.

Date/timePositionNaut miles runAvg speedWind from/ knotsBaromVisibWave heightAir tempDewpointWater temp
2017-Oct-12 09:55N 34°37' E 134°58'410.8
2017-Oct-12 09:30N 34°36' E 135°04'612.7
2017-Oct-12 09:00N 34°36' E 135°11'713.9
2017-Oct-12 08:31N 34°36' E 135°20'5 9.3
2017-Oct-12 07:59N 34°35' E 135°25'0 0.2
2017-Oct-12 06:41N 34°35' E 135°26'0 0.0
2017-Oct-12 05:35N 34°35' E 135°26'0 0.0
2017-Oct-12 05:29N 34°35' E 135°26'0 0.0
2017-Oct-12 04:53N 34°35' E 135°26'0 0.0
2017-Oct-12 04:17N 34°35' E 135°26'0 0.0
2017-Oct-12 03:59N 34°35' E 135°26'0 0.0
2017-Oct-12 03:17N 34°35' E 135°26'0 0.0
2017-Oct-12 02:59N 34°35' E 135°26'0 0.0
2017-Oct-12 02:29N 34°35' E 135°26'0 0.0
2017-Oct-12 01:53N 34°35' E 135°26'0 0.0
2017-Oct-12 01:29N 34°35' E 135°26'0 0.0
2017-Oct-12 00:59N 34°35' E 135°26'0 0.0
2017-Oct-12 00:29N 34°35' E 135°26'0 0.0
2017-Oct-11 23:59N 34°35' E 135°26'0 0.0
2017-Oct-11 23:23N 34°35' E 135°26'0 0.0
2017-Oct-11 22:59N 34°35' E 135°26'0 0.0
2017-Oct-11 22:29N 34°35' E 135°26'0 0.0
2017-Oct-11 21:59N 34°35' E 135°26'0 0.5
2017-Oct-11 21:20N 34°35' E 135°25'0 0.0
2017-Oct-11 20:14N 34°35' E 135°25'0 0.0
2017-Oct-11 19:56N 34°35' E 135°25'0 0.0
2017-Oct-11 17:56N 34°35' E 135°25'0 0.0
2017-Oct-11 17:26N 34°35' E 135°25'0 0.0
2017-Oct-11 16:56N 34°35' E 135°25'26 0.8
2017-Oct-10 07:01N 34°37' E 134°54'0 9.9
2017-Oct-10 07:00N 34°37' E 134°54'610.7
2017-Oct-10 06:27N 34°37' E 135°02'510.6
2017-Oct-10 06:00N 34°33' E 135°05'713.0
2017-Oct-10 05:29N 34°27' E 135°03'1313.0
2017-Oct-10 04:31N 34°15' E 134°59'013.9
2017-Oct-10 04:30N 34°14' E 134°59'713.0
2017-Oct-10 04:00N 34°08' E 135°01'  
2017-Oct-04 23:12N 34°51' E 139°48'713.8
2017-Oct-04 22:42N 34°57' E 139°44'314.5
2017-Oct-04 22:30N 34°60' E 139°43'713.3
2017-Oct-04 22:00N 35°06' E 139°45'713.4
2017-Oct-04 21:30N 35°13' E 139°46'611.5
2017-Oct-04 21:00N 35°18' E 139°43'2 3.5
2017-Oct-04 20:31N 35°17' E 139°41'0 0.0
2017-Oct-04 20:00N 35°17' E 139°41'0 0.0
2017-Oct-04 19:30N 35°17' E 139°41'0 0.0
2017-Oct-04 19:00N 35°17' E 139°41'0 0.0
2017-Oct-04 18:30N 35°17' E 139°41'0 0.0
2017-Oct-04 18:00N 35°17' E 139°41'0 0.0
2017-Oct-04 17:24N 35°17' E 139°41'0 0.0
2017-Oct-04 16:57N 35°17' E 139°41'0 0.0
2017-Oct-04 16:28N 35°17' E 139°41'0 0.0
2017-Oct-04 15:55N 35°17' E 139°41'0 0.0
2017-Oct-04 15:29N 35°17' E 139°41'0 0.0
2017-Oct-04 14:59N 35°17' E 139°41'0 0.0
2017-Oct-04 14:29N 35°17' E 139°41'0 0.0
2017-Oct-04 13:56N 35°17' E 139°41'0 0.0
2017-Oct-04 13:23N 35°17' E 139°41'0 0.0
2017-Oct-04 12:59N 35°17' E 139°41'0 0.0
2017-Oct-04 12:29N 35°17' E 139°41'0 0.0
2017-Oct-04 11:53N 35°17' E 139°41'0 0.0
2017-Oct-04 11:29N 35°17' E 139°41'0 0.0
2017-Oct-04 10:59N 35°17' E 139°41'0 0.0
2017-Oct-04 10:29N 35°17' E 139°41'0 0.0
2017-Oct-04 09:59N 35°17' E 139°41'0 0.0
2017-Oct-04 09:23N 35°17' E 139°41'0 0.0
2017-Oct-04 08:59N 35°17' E 139°41'0 0.0
2017-Oct-04 08:29N 35°17' E 139°41'0 0.0
2017-Oct-04 07:59N 35°17' E 139°41'0 0.0
2017-Oct-04 07:29N 35°17' E 139°41'0 0.0
2017-Oct-04 06:59N 35°17' E 139°41'0 0.0
2017-Oct-04 06:29N 35°17' E 139°41'0 0.0
2017-Oct-04 05:59N 35°17' E 139°41'0 0.0
2017-Oct-04 05:29N 35°17' E 139°41'0 0.0
2017-Oct-04 04:59N 35°17' E 139°41'0 0.0
2017-Oct-04 04:29N 35°17' E 139°41'0 0.0
2017-Oct-04 03:59N 35°17' E 139°41'0 0.0
2017-Oct-04 03:29N 35°17' E 139°41'0 0.0
2017-Oct-04 02:47N 35°17' E 139°41'0 0.0
2017-Oct-04 02:29N 35°17' E 139°41'0 0.0
2017-Oct-04 01:59N 35°17' E 139°41'0 0.0
2017-Oct-04 01:23N 35°17' E 139°41'0 0.0
2017-Oct-04 00:59N 35°17' E 139°41'0 0.0
2017-Oct-04 00:29N 35°17' E 139°41'0 0.0
2017-Oct-03 23:59N 35°17' E 139°41'0 0.0
2017-Oct-03 23:29N 35°17' E 139°41'0 0.0
2017-Oct-03 22:59N 35°17' E 139°41'0 0.0
2017-Oct-03 22:29N 35°17' E 139°41'0 0.0
2017-Oct-03 22:00N 35°17' E 139°41'0 0.0
2017-Oct-03 21:30N 35°17' E 139°41'0 0.2
2017-Oct-03 21:00N 35°17' E 139°41'4 8.3
2017-Oct-03 20:30N 35°17' E 139°46'510.4
2017-Oct-03 20:00N 35°11' E 139°46'612.9
2017-Oct-03 19:30N 35°05' E 139°43'613.0
2017-Oct-03 19:00N 35°01' E 139°38'713.0
2017-Oct-03 18:29N 34°56' E 139°31'  

Dump ship's entire track history